createdAt,value
2018-07-30T00:00:34.911Z,0
2018-07-30T00:01:35.463Z,0
2018-07-30T00:02:34.449Z,0
2018-07-30T00:03:35.265Z,0
2018-07-30T00:04:35.550Z,0
2018-07-30T00:05:35.430Z,0
2018-07-30T00:06:35.081Z,0
2018-07-30T00:07:35.120Z,0
2018-07-30T00:08:35.391Z,0
2018-07-30T00:09:35.178Z,0
2018-07-30T00:10:35.452Z,0
2018-07-30T00:11:35.482Z,0
2018-07-30T00:12:35.513Z,0
2018-07-30T00:13:35.018Z,0
2018-07-30T00:14:35.824Z,0
2018-07-30T00:15:35.591Z,0
2018-07-30T00:16:35.622Z,0
2018-07-30T00:17:35.914Z,0
2018-07-30T00:18:35.692Z,0
2018-07-30T00:19:35.185Z,0
2018-07-30T00:20:36.045Z,0
2018-07-30T00:21:36.364Z,0
2018-07-30T00:22:35.795Z,0
2018-07-30T00:23:35.816Z,0
2018-07-30T00:24:35.327Z,0
2018-07-30T00:25:35.870Z,0
2018-07-30T00:26:36.169Z,0
2018-07-30T00:27:35.938Z,0
2018-07-30T00:28:35.969Z,0
2018-07-30T00:29:35.990Z,0
2018-07-30T00:30:36.278Z,0
2018-07-30T00:31:36.225Z,0
2018-07-30T00:32:36.368Z,0
2018-07-30T00:33:36.098Z,0
2018-07-30T00:34:35.868Z,0
2018-07-30T00:35:35.895Z,0
2018-07-30T00:36:36.439Z,0
2018-07-30T00:37:36.495Z,0
2018-07-30T00:38:36.242Z,0
2018-07-30T00:39:36.260Z,0
2018-07-30T00:40:36.552Z,0
2018-07-30T00:41:39.641Z,0
2018-07-30T00:42:36.347Z,0
2018-07-30T00:43:36.123Z,0
2018-07-30T00:44:36.672Z,0
2018-07-30T00:45:36.446Z,0
2018-07-30T00:46:35.934Z,0
2018-07-30T00:47:36.488Z,0
2018-07-30T00:48:36.010Z,0
2018-07-30T00:49:36.810Z,0
2018-07-30T00:50:36.833Z,0
2018-07-30T00:51:36.601Z,0
2018-07-30T00:52:36.886Z,0
2018-07-30T00:53:36.391Z,0
2018-07-30T00:54:36.947Z,0
2018-07-30T00:55:36.966Z,0
2018-07-30T00:56:36.742Z,0
2018-07-30T00:57:36.501Z,0
2018-07-30T00:58:36.531Z,0
2018-07-30T00:59:36.820Z,0
2018-07-30T01:00:36.590Z,0
2018-07-30T01:01:37.193Z,0
2018-07-30T01:02:36.390Z,0
2018-07-30T01:03:36.937Z,0
2018-07-30T01:04:37.229Z,0
2018-07-30T01:05:36.723Z,0
2018-07-30T01:06:37.010Z,0
2018-07-30T01:07:37.434Z,0
2018-07-30T01:08:37.342Z,0
2018-07-30T01:09:37.104Z,0
2018-07-30T01:10:37.140Z,0
2018-07-30T01:11:37.411Z,0
2018-07-30T01:12:36.932Z,0
2018-07-30T01:13:37.204Z,0
2018-07-30T01:14:37.755Z,0
2018-07-30T01:15:37.000Z,0
2018-07-30T01:16:37.557Z,0
2018-07-30T01:17:37.615Z,0
2018-07-30T01:18:36.822Z,0
2018-07-30T01:19:37.114Z,0
2018-07-30T01:20:37.662Z,0
2018-07-30T01:21:37.837Z,0
2018-07-30T01:22:37.714Z,0
2018-07-30T01:23:37.490Z,0
2018-07-30T01:24:37.246Z,0
2018-07-30T01:25:37.794Z,0
2018-07-30T01:26:37.822Z,0
2018-07-30T01:27:37.861Z,0
2018-07-30T01:28:37.622Z,0
2018-07-30T01:29:37.653Z,0
2018-07-30T01:30:37.424Z,0
2018-07-30T01:31:37.732Z,0
2018-07-30T01:32:38.002Z,0
2018-07-30T01:33:37.526Z,0
2018-07-30T01:34:37.789Z,0
2018-07-30T01:35:38.077Z,0
2018-07-30T01:36:38.099Z,0
2018-07-30T01:37:37.863Z,0
2018-07-30T01:38:37.123Z,0
2018-07-30T01:39:38.209Z,0
2018-07-30T01:40:37.724Z,0
2018-07-30T01:41:37.719Z,0
2018-07-30T01:42:38.026Z,0
2018-07-30T01:43:38.029Z,0
2018-07-30T01:44:38.068Z,0
2018-07-30T01:45:38.364Z,0
2018-07-30T01:46:37.910Z,0
2018-07-30T01:47:37.642Z,0
2018-07-30T01:48:38.429Z,0
2018-07-30T01:49:38.241Z,0
2018-07-30T01:50:38.221Z,0
2018-07-30T01:51:37.987Z,0
2018-07-30T01:52:38.018Z,0
2018-07-30T01:53:38.576Z,0
2018-07-30T01:54:38.339Z,0
2018-07-30T01:55:38.585Z,0
2018-07-30T01:56:38.388Z,0
2018-07-30T01:57:38.163Z,0
2018-07-30T01:58:38.713Z,0
2018-07-30T01:59:37.950Z,0
2018-07-30T02:00:38.754Z,0
2018-07-30T02:01:38.530Z,0
2018-07-30T02:02:38.825Z,0
2018-07-30T02:03:38.584Z,0
2018-07-30T02:04:38.605Z,0
2018-07-30T02:05:38.638Z,0
2018-07-30T02:06:38.666Z,0
2018-07-30T02:07:38.691Z,0
2018-07-30T02:08:38.990Z,0
2018-07-30T02:09:38.747Z,0
2018-07-30T02:10:39.028Z,0
2018-07-30T02:11:38.537Z,0
2018-07-30T02:12:38.831Z,0
2018-07-30T02:13:39.106Z,0
2018-07-30T02:14:39.146Z,0
2018-07-30T02:15:39.167Z,0
2018-07-30T02:16:38.969Z,0
2018-07-30T02:17:39.322Z,0
2018-07-30T02:18:39.243Z,0
2018-07-30T02:19:39.281Z,0
2018-07-30T02:20:39.042Z,0
2018-07-30T02:21:39.597Z,0
2018-07-30T02:22:39.094Z,0
2018-07-30T02:23:38.876Z,0
2018-07-30T02:24:39.147Z,0
2018-07-30T02:25:39.451Z,0
2018-07-30T02:26:39.459Z,0
2018-07-30T02:27:39.227Z,0
2018-07-30T02:28:39.000Z,0
2018-07-30T02:29:39.282Z,0
2018-07-30T02:30:39.071Z,0
2018-07-30T02:31:39.596Z,0
2018-07-30T02:32:39.372Z,0
2018-07-30T02:33:39.658Z,0
2018-07-30T02:34:38.905Z,0
2018-07-30T02:35:39.457Z,0
2018-07-30T02:36:39.513Z,0
2018-07-30T02:37:39.761Z,0
2018-07-30T02:38:39.563Z,0
2018-07-30T02:39:39.301Z,0
2018-07-30T02:40:39.859Z,0
2018-07-30T02:41:39.614Z,0
2018-07-30T02:42:39.658Z,0
2018-07-30T02:43:39.418Z,0
2018-07-30T02:44:39.443Z,0
2018-07-30T02:45:39.726Z,0
2018-07-30T02:46:40.138Z,0
2018-07-30T02:47:39.773Z,0
2018-07-30T02:48:40.087Z,0
2018-07-30T02:49:39.316Z,0
2018-07-30T02:50:39.336Z,0
2018-07-30T02:51:39.890Z,0
2018-07-30T02:52:39.932Z,0
2018-07-30T02:53:40.193Z,0
2018-07-30T02:54:40.220Z,0
2018-07-30T02:55:39.992Z,0
2018-07-30T02:56:39.494Z,0
2018-07-30T02:57:40.458Z,0
2018-07-30T02:58:39.815Z,0
2018-07-30T02:59:40.351Z,0
2018-07-30T03:00:39.869Z,0
2018-07-30T03:01:40.420Z,0
2018-07-30T03:02:39.932Z,0
2018-07-30T03:03:39.946Z,0
2018-07-30T03:04:40.238Z,0
2018-07-30T03:05:40.511Z,0
2018-07-30T03:06:40.025Z,0
2018-07-30T03:07:40.306Z,0
2018-07-30T03:08:40.068Z,0
2018-07-30T03:09:40.630Z,0
2018-07-30T03:10:39.862Z,0
2018-07-30T03:11:40.409Z,0
2018-07-30T03:12:40.451Z,0
2018-07-30T03:13:40.464Z,0
2018-07-30T03:14:40.755Z,0
2018-07-30T03:15:40.259Z,0
2018-07-30T03:16:40.557Z,0
2018-07-30T03:17:40.585Z,0
2018-07-30T03:18:40.870Z,0
2018-07-30T03:19:40.629Z,0
2018-07-30T03:20:40.652Z,0
2018-07-30T03:21:40.944Z,0
2018-07-30T03:22:40.958Z,0
2018-07-30T03:23:40.989Z,0
2018-07-30T03:24:41.027Z,0
2018-07-30T03:25:40.822Z,0
2018-07-30T03:26:40.559Z,0
2018-07-30T03:27:40.856Z,0
2018-07-30T03:28:41.010Z,0
2018-07-30T03:29:40.898Z,0
2018-07-30T03:30:41.184Z,0
2018-07-30T03:31:41.009Z,0
2018-07-30T03:32:41.230Z,0
2018-07-30T03:33:40.998Z,0
2018-07-30T03:34:41.023Z,0
2018-07-30T03:35:41.108Z,0
2018-07-30T03:36:40.816Z,0
2018-07-30T03:37:40.840Z,0
2018-07-30T03:38:40.870Z,0
2018-07-30T03:39:40.896Z,0
2018-07-30T03:40:41.450Z,0
2018-07-30T03:41:41.474Z,0
2018-07-30T03:42:40.990Z,0
2018-07-30T03:43:41.517Z,0
2018-07-30T03:44:41.352Z,0
2018-07-30T03:45:41.368Z,0
2018-07-30T03:46:41.791Z,0
2018-07-30T03:47:41.377Z,0
2018-07-30T03:48:41.398Z,0
2018-07-30T03:49:41.428Z,0
2018-07-30T03:50:41.191Z,0
2018-07-30T03:51:41.741Z,0
2018-07-30T03:52:41.503Z,0
2018-07-30T03:53:41.792Z,0
2018-07-30T03:54:41.767Z,0
2018-07-30T03:55:41.577Z,0
2018-07-30T03:56:41.344Z,0
2018-07-30T03:57:41.896Z,0
2018-07-30T03:58:41.928Z,0
2018-07-30T03:59:41.696Z,0
2018-07-30T04:00:41.973Z,0
2018-07-30T04:01:42.001Z,0
2018-07-30T04:02:41.763Z,0
2018-07-30T04:03:41.793Z,0
2018-07-30T04:04:42.071Z,0
2018-07-30T04:05:41.611Z,0
2018-07-30T04:06:41.966Z,0
2018-07-30T04:07:41.655Z,0
2018-07-30T04:08:42.179Z,0
2018-07-30T04:09:41.955Z,0
2018-07-30T04:10:41.458Z,0
2018-07-30T04:11:41.743Z,0
2018-07-30T04:12:41.879Z,0
2018-07-30T04:13:41.794Z,0
2018-07-30T04:14:42.087Z,0
2018-07-30T04:15:42.112Z,0
2018-07-30T04:16:42.136Z,0
2018-07-30T04:17:42.420Z,0
2018-07-30T04:18:42.445Z,0
2018-07-30T04:19:42.480Z,0
2018-07-30T04:20:42.510Z,0
2018-07-30T04:21:42.005Z,0
2018-07-30T04:22:42.291Z,0
2018-07-30T04:23:42.062Z,0
2018-07-30T04:24:42.344Z,0
2018-07-30T04:25:42.648Z,5
2018-07-30T04:26:42.705Z,5
2018-07-30T04:27:42.435Z,5
2018-07-30T04:28:42.724Z,5
2018-07-30T04:29:42.472Z,5
2018-07-30T04:30:42.339Z,5
2018-07-30T04:31:42.790Z,5
2018-07-30T04:32:42.809Z,0
2018-07-30T04:33:42.319Z,0
2018-07-30T04:34:42.611Z,0
2018-07-30T04:35:42.376Z,0
2018-07-30T04:36:42.665Z,0
2018-07-30T04:37:42.948Z,0
2018-07-30T04:38:42.712Z,0
2018-07-30T04:39:42.745Z,0
2018-07-30T04:40:42.769Z,0
2018-07-30T04:41:42.530Z,0
2018-07-30T04:42:43.072Z,0
2018-07-30T04:43:42.982Z,0
2018-07-30T04:44:42.608Z,5
2018-07-30T04:45:43.152Z,5
2018-07-30T04:46:43.119Z,5
2018-07-30T04:47:43.220Z,0
2018-07-30T04:48:42.711Z,0
2018-07-30T04:49:43.274Z,5
2018-07-30T04:50:43.022Z,5
2018-07-30T04:51:43.050Z,5
2018-07-30T04:52:42.553Z,5
2018-07-30T04:53:43.370Z,5
2018-07-30T04:54:43.391Z,5
2018-07-30T04:55:43.412Z,5
2018-07-30T04:56:43.179Z,5
2018-07-30T04:57:43.479Z,5
2018-07-30T04:58:42.969Z,5
2018-07-30T04:59:42.995Z,5
2018-07-30T05:00:43.551Z,5
2018-07-30T05:01:43.564Z,5
2018-07-30T05:02:43.346Z,5
2018-07-30T05:03:43.218Z,5
2018-07-30T05:04:43.657Z,5
2018-07-30T05:05:43.167Z,5
2018-07-30T05:06:43.703Z,5
2018-07-30T05:07:43.472Z,5
2018-07-30T05:08:43.523Z,5
2018-07-30T05:09:43.774Z,5
2018-07-30T05:10:43.283Z,5
2018-07-30T05:11:43.595Z,5
2018-07-30T05:12:43.601Z,5
2018-07-30T05:13:43.895Z,5
2018-07-30T05:14:43.649Z,5
2018-07-30T05:15:43.413Z,5
2018-07-30T05:16:43.180Z,5
2018-07-30T05:17:43.480Z,5
2018-07-30T05:18:43.755Z,5
2018-07-30T05:19:43.345Z,5
2018-07-30T05:20:43.807Z,5
2018-07-30T05:21:43.595Z,5
2018-07-30T05:22:44.119Z,5
2018-07-30T05:23:43.887Z,5
2018-07-30T05:24:43.650Z,5
2018-07-30T05:25:43.947Z,5
2018-07-30T05:26:44.228Z,5
2018-07-30T05:27:43.984Z,5
2018-07-30T05:28:43.501Z,5
2018-07-30T05:29:44.306Z,5
2018-07-30T05:30:44.063Z,5
2018-07-30T05:31:44.622Z,5
2018-07-30T05:32:44.214Z,5
2018-07-30T05:33:43.636Z,5
2018-07-30T05:34:43.945Z,5
2018-07-30T05:35:43.934Z,5
2018-07-30T05:36:43.963Z,5
2018-07-30T05:37:44.247Z,5
2018-07-30T05:38:44.011Z,5
2018-07-30T05:39:43.779Z,5
2018-07-30T05:40:43.818Z,5
2018-07-30T05:41:44.355Z,5
2018-07-30T05:42:44.502Z,5
2018-07-30T05:43:44.660Z,5
2018-07-30T05:44:43.907Z,5
2018-07-30T05:45:44.207Z,5
2018-07-30T05:46:44.755Z,5
2018-07-30T05:47:44.016Z,5
2018-07-30T05:48:44.806Z,5
2018-07-30T05:49:44.822Z,5
2018-07-30T05:50:44.850Z,5
2018-07-30T05:51:44.617Z,5
2018-07-30T05:52:44.902Z,5
2018-07-30T05:53:44.423Z,5
2018-07-30T05:54:44.701Z,5
2018-07-30T05:55:44.991Z,5
2018-07-30T05:56:44.475Z,5
2018-07-30T05:57:44.762Z,5
2018-07-30T05:58:45.055Z,5
2018-07-30T05:59:45.565Z,5
2018-07-30T06:00:44.846Z,5
2018-07-30T06:01:44.616Z,5
2018-07-30T06:02:44.636Z,5
2018-07-30T06:03:45.197Z,5
2018-07-30T06:04:44.961Z,5
2018-07-30T06:05:45.146Z,5
2018-07-30T06:06:44.758Z,5
2018-07-30T06:07:45.277Z,5
2018-07-30T06:08:45.308Z,5
2018-07-30T06:09:45.290Z,5
2018-07-30T06:10:45.099Z,5
2018-07-30T06:11:44.865Z,5
2018-07-30T06:12:45.151Z,5
2018-07-30T06:13:45.479Z,5
2018-07-30T06:14:45.463Z,5
2018-07-30T06:15:44.706Z,5
2018-07-30T06:16:45.256Z,5
2018-07-30T06:17:45.540Z,5
2018-07-30T06:18:45.302Z,5
2018-07-30T06:19:45.594Z,5
2018-07-30T06:20:45.628Z,5
2018-07-30T06:21:45.395Z,5
2018-07-30T06:22:45.150Z,5
2018-07-30T06:23:45.438Z,5
2018-07-30T06:24:45.464Z,5
2018-07-30T06:25:45.487Z,5
2018-07-30T06:26:45.796Z,5
2018-07-30T06:27:45.810Z,5
2018-07-30T06:28:45.849Z,5
2018-07-30T06:29:45.851Z,5
2018-07-30T06:30:45.886Z,5
2018-07-30T06:31:45.671Z,5
2018-07-30T06:32:45.670Z,5
2018-07-30T06:33:45.691Z,5
2018-07-30T06:34:45.982Z,5
2018-07-30T06:35:46.015Z,5
2018-07-30T06:36:45.786Z,5
2018-07-30T06:37:46.051Z,5
2018-07-30T06:38:46.093Z,5
2018-07-30T06:39:46.112Z,5
2018-07-30T06:40:45.871Z,5
2018-07-30T06:41:46.165Z,5
2018-07-30T06:42:46.255Z,5
2018-07-30T06:43:46.234Z,5
2018-07-30T06:44:45.986Z,5
2018-07-30T06:45:46.006Z,5
2018-07-30T06:46:46.029Z,5
2018-07-30T06:47:46.059Z,5
2018-07-30T06:48:45.826Z,5
2018-07-30T06:49:46.117Z,5
2018-07-30T06:50:45.871Z,5
2018-07-30T06:51:46.163Z,5
2018-07-30T06:52:45.921Z,5
2018-07-30T06:53:46.210Z,5
2018-07-30T06:54:46.238Z,5
2018-07-30T06:55:46.271Z,5
2018-07-30T06:56:46.289Z,5
2018-07-30T06:57:46.075Z,5
2018-07-30T06:58:46.081Z,5
2018-07-30T06:59:46.637Z,5
2018-07-30T07:00:46.393Z,5
2018-07-30T07:01:46.681Z,5
2018-07-30T07:02:46.720Z,5
2018-07-30T07:03:46.474Z,5
2018-07-30T07:04:46.240Z,5
2018-07-30T07:05:46.530Z,5
2018-07-30T07:06:46.554Z,5
2018-07-30T07:07:46.589Z,5
2018-07-30T07:08:46.603Z,5
2018-07-30T07:09:46.907Z,5
2018-07-30T07:10:47.019Z,5
2018-07-30T07:11:46.941Z,5
2018-07-30T07:12:46.732Z,5
2018-07-30T07:13:46.997Z,5
2018-07-30T07:14:47.027Z,5
2018-07-30T07:15:47.049Z,5
2018-07-30T07:16:46.946Z,5
2018-07-30T07:17:46.834Z,5
2018-07-30T07:18:47.131Z,5
2018-07-30T07:19:46.927Z,5
2018-07-30T07:20:46.899Z,5
2018-07-30T07:21:47.790Z,5
2018-07-30T07:22:47.235Z,5
2018-07-30T07:23:46.733Z,5
2018-07-30T07:24:47.284Z,5
2018-07-30T07:25:47.326Z,5
2018-07-30T07:26:47.072Z,5
2018-07-30T07:27:47.367Z,5
2018-07-30T07:28:47.385Z,5
2018-07-30T07:29:46.635Z,5
2018-07-30T07:30:46.922Z,5
2018-07-30T07:31:47.465Z,10
2018-07-30T07:32:46.973Z,10
2018-07-30T07:33:47.271Z,10
2018-07-30T07:34:47.033Z,10
2018-07-30T07:35:47.580Z,10
2018-07-30T07:36:47.350Z,10
2018-07-30T07:37:47.381Z,10
2018-07-30T07:38:47.667Z,10
2018-07-30T07:39:47.159Z,10
2018-07-30T07:40:47.194Z,10
2018-07-30T07:41:47.210Z,10
2018-07-30T07:42:47.133Z,10
2018-07-30T07:43:47.012Z,10
2018-07-30T07:44:47.288Z,10
2018-07-30T07:45:47.317Z,10
2018-07-30T07:46:47.349Z,10
2018-07-30T07:47:47.944Z,10
2018-07-30T07:48:47.790Z,10
2018-07-30T07:49:47.950Z,10
2018-07-30T07:50:48.436Z,10
2018-07-30T07:51:47.844Z,10
2018-07-30T07:52:47.506Z,10
2018-07-30T07:53:47.532Z,10
2018-07-30T07:54:47.630Z,10
2018-07-30T07:55:48.129Z,10
2018-07-30T07:56:47.866Z,10
2018-07-30T07:57:47.656Z,10
2018-07-30T07:58:48.074Z,10
2018-07-30T07:59:48.204Z,10
2018-07-30T08:00:47.987Z,10
2018-07-30T08:01:48.006Z,10
2018-07-30T08:02:48.287Z,10
2018-07-30T08:03:48.058Z,10
2018-07-30T08:04:48.352Z,10
2018-07-30T08:05:48.376Z,10
2018-07-30T08:06:48.420Z,10
2018-07-30T08:07:48.441Z,10
2018-07-30T08:08:48.450Z,10
2018-07-30T08:09:48.956Z,10
2018-07-30T08:10:48.267Z,10
2018-07-30T08:11:48.551Z,10
2018-07-30T08:12:48.308Z,10
2018-07-30T08:13:48.331Z,10
2018-07-30T08:14:48.095Z,10
2018-07-30T08:15:48.392Z,10
2018-07-30T08:16:48.678Z,10
2018-07-30T08:17:48.700Z,10
2018-07-30T08:18:48.201Z,10
2018-07-30T08:19:48.500Z,10
2018-07-30T08:20:48.785Z,10
2018-07-30T08:21:48.833Z,10
2018-07-30T08:22:48.584Z,10
2018-07-30T08:23:48.339Z,10
2018-07-30T08:24:48.890Z,10
2018-07-30T08:25:48.659Z,10
2018-07-30T08:26:48.426Z,10
2018-07-30T08:27:48.715Z,10
2018-07-30T08:28:48.738Z,10
2018-07-30T08:29:49.100Z,10
2018-07-30T08:30:49.063Z,10
2018-07-30T08:31:48.825Z,10
2018-07-30T08:32:49.107Z,10
2018-07-30T08:33:49.185Z,10
2018-07-30T08:34:49.176Z,10
2018-07-30T08:35:48.937Z,10
2018-07-30T08:36:48.958Z,10
2018-07-30T08:37:48.725Z,10
2018-07-30T08:38:49.011Z,10
2018-07-30T08:39:48.791Z,10
2018-07-30T08:40:49.069Z,10
2018-07-30T08:41:49.097Z,10
2018-07-30T08:42:49.138Z,10
2018-07-30T08:43:49.162Z,15
2018-07-30T08:44:48.413Z,15
2018-07-30T08:45:49.210Z,15
2018-07-30T08:46:49.498Z,15
2018-07-30T08:47:49.538Z,15
2018-07-30T08:48:49.556Z,15
2018-07-30T08:49:49.334Z,15
2018-07-30T08:50:49.637Z,15
2018-07-30T08:51:49.642Z,15
2018-07-30T08:52:48.890Z,15
2018-07-30T08:53:49.457Z,15
2018-07-30T08:54:49.209Z,15
2018-07-30T08:55:49.496Z,15
2018-07-30T08:56:49.790Z,15
2018-07-30T08:57:49.821Z,15
2018-07-30T08:58:49.583Z,15
2018-07-30T08:59:49.615Z,15
2018-07-30T09:00:49.643Z,15
2018-07-30T09:01:49.674Z,15
2018-07-30T09:02:49.956Z,15
2018-07-30T09:03:50.043Z,15
2018-07-30T09:04:50.019Z,15
2018-07-30T09:05:50.045Z,15
2018-07-30T09:06:49.290Z,15
2018-07-30T09:07:49.585Z,15
2018-07-30T09:08:50.131Z,15
2018-07-30T09:09:49.901Z,15
2018-07-30T09:10:49.935Z,15
2018-07-30T09:11:49.964Z,15
2018-07-30T09:12:50.595Z,15
2018-07-30T09:13:50.027Z,15
2018-07-30T09:14:50.045Z,15
2018-07-30T09:15:49.817Z,15
2018-07-30T09:16:50.378Z,15
2018-07-30T09:17:50.145Z,15
2018-07-30T09:18:50.169Z,15
2018-07-30T09:19:50.196Z,15
2018-07-30T09:20:50.232Z,15
2018-07-30T09:21:50.514Z,20
2018-07-30T09:22:50.031Z,20
2018-07-30T09:23:50.053Z,20
2018-07-30T09:24:50.605Z,20
2018-07-30T09:25:50.646Z,20
2018-07-30T09:26:50.780Z,20
2018-07-30T09:27:50.730Z,20
2018-07-30T09:28:50.717Z,20
2018-07-30T09:29:50.489Z,20
2018-07-30T09:30:50.261Z,20
2018-07-30T09:31:50.295Z,20
2018-07-30T09:32:51.415Z,20
2018-07-30T09:33:50.627Z,20
2018-07-30T09:34:50.397Z,20
2018-07-30T09:35:50.937Z,20
2018-07-30T09:36:50.184Z,20
2018-07-30T09:37:50.738Z,25
2018-07-30T09:38:51.140Z,25
2018-07-30T09:39:51.148Z,25
2018-07-30T09:40:51.096Z,25
2018-07-30T09:41:50.595Z,20
2018-07-30T09:42:51.202Z,25
2018-07-30T09:43:51.194Z,25
2018-07-30T09:44:51.440Z,25
2018-07-30T09:45:51.249Z,25
2018-07-30T09:46:51.295Z,25
2018-07-30T09:47:51.055Z,30
2018-07-30T09:48:50.806Z,30
2018-07-30T09:49:51.362Z,30
2018-07-30T09:50:51.366Z,30
2018-07-30T09:51:51.161Z,30
2018-07-30T09:52:51.192Z,30
2018-07-30T09:53:51.220Z,25
2018-07-30T09:54:51.517Z,20
2018-07-30T09:55:51.024Z,20
2018-07-30T09:56:51.055Z,15
2018-07-30T09:57:51.604Z,20
2018-07-30T09:58:51.438Z,20
2018-07-30T09:59:51.416Z,20
2018-07-30T10:00:50.924Z,25
2018-07-30T10:01:50.947Z,25
2018-07-30T10:02:51.761Z,25
2018-07-30T10:03:51.541Z,25
2018-07-30T10:04:51.570Z,25
2018-07-30T10:05:51.595Z,25
2018-07-30T10:06:51.642Z,25
2018-07-30T10:07:51.673Z,25
2018-07-30T10:08:51.972Z,25
2018-07-30T10:09:51.740Z,25
2018-07-30T10:10:51.762Z,25
2018-07-30T10:11:52.354Z,25
2018-07-30T10:12:51.599Z,25
2018-07-30T10:13:51.860Z,25
2018-07-30T10:14:52.145Z,30
2018-07-30T10:15:51.658Z,30
2018-07-30T10:16:51.950Z,25
2018-07-30T10:17:52.504Z,25
2018-07-30T10:18:52.054Z,25
2018-07-30T10:19:52.086Z,30
2018-07-30T10:20:52.077Z,30
2018-07-30T10:21:52.374Z,30
2018-07-30T10:22:51.884Z,30
2018-07-30T10:23:52.997Z,30
2018-07-30T10:24:51.949Z,30
2018-07-30T10:25:52.244Z,30
2018-07-30T10:26:52.529Z,30
2018-07-30T10:27:52.571Z,30
2018-07-30T10:28:52.339Z,30
2018-07-30T10:29:52.380Z,30
2018-07-30T10:30:52.047Z,30
2018-07-30T10:31:52.704Z,30
2018-07-30T10:32:52.472Z,35
2018-07-30T10:33:51.987Z,30
2018-07-30T10:34:52.795Z,20
2018-07-30T10:35:52.598Z,15
2018-07-30T10:36:52.341Z,15
2018-07-30T10:37:52.917Z,20
2018-07-30T10:38:52.409Z,20
2018-07-30T10:39:53.169Z,20
2018-07-30T10:40:53.000Z,20
2018-07-30T10:41:52.766Z,25
2018-07-30T10:42:52.531Z,25
2018-07-30T10:43:52.829Z,30
2018-07-30T10:44:52.864Z,30
2018-07-30T10:45:53.151Z,30
2018-07-30T10:46:52.935Z,40
2018-07-30T10:47:52.965Z,25
2018-07-30T10:48:53.000Z,25
2018-07-30T10:49:52.779Z,25
2018-07-30T10:50:53.066Z,25
2018-07-30T10:51:53.246Z,25
2018-07-30T10:52:53.170Z,25
2018-07-30T10:53:53.577Z,40
2018-07-30T10:54:53.463Z,35
2018-07-30T10:55:53.490Z,25
2018-07-30T10:56:53.531Z,30
2018-07-30T10:57:53.558Z,25
2018-07-30T10:58:53.588Z,25
2018-07-30T10:59:53.375Z,25
2018-07-30T11:00:53.422Z,25
2018-07-30T11:01:53.695Z,25
2018-07-30T11:02:53.467Z,25
2018-07-30T11:03:53.250Z,30
2018-07-30T11:04:53.532Z,25
2018-07-30T11:05:53.832Z,25
2018-07-30T11:06:53.861Z,30
2018-07-30T11:07:54.176Z,25
2018-07-30T11:08:53.928Z,30
2018-07-30T11:09:53.586Z,45
2018-07-30T11:10:53.738Z,45
2018-07-30T11:11:53.282Z,45
2018-07-30T11:12:53.541Z,45
2018-07-30T11:13:54.095Z,50
2018-07-30T11:14:53.951Z,50
2018-07-30T11:15:54.166Z,50
2018-07-30T11:16:53.681Z,50
2018-07-30T11:17:54.234Z,50
2018-07-30T11:18:54.097Z,50
2018-07-30T11:19:53.812Z,50
2018-07-30T11:20:53.816Z,50
2018-07-30T11:21:54.259Z,45
2018-07-30T11:22:54.419Z,45
2018-07-30T11:23:54.176Z,45
2018-07-30T11:24:54.262Z,30
2018-07-30T11:25:54.508Z,25
2018-07-30T11:26:54.023Z,25
2018-07-30T11:27:54.718Z,45
2018-07-30T11:28:54.360Z,45
2018-07-30T11:29:54.648Z,45
2018-07-30T11:30:54.421Z,45
2018-07-30T11:31:54.454Z,50
2018-07-30T11:32:54.485Z,50
2018-07-30T11:33:54.003Z,50
2018-07-30T11:34:54.292Z,50
2018-07-30T11:35:54.587Z,50
2018-07-30T11:36:54.617Z,50
2018-07-30T11:37:54.396Z,50
2018-07-30T11:38:54.959Z,50
2018-07-30T11:39:54.724Z,50
2018-07-30T11:40:54.761Z,50
2018-07-30T11:41:54.799Z,50
2018-07-30T11:42:55.392Z,50
2018-07-30T11:43:54.985Z,50
2018-07-30T11:44:54.901Z,55
2018-07-30T11:45:54.929Z,55
2018-07-30T11:46:54.973Z,55
2018-07-30T11:47:55.001Z,60
2018-07-30T11:48:54.851Z,60
2018-07-30T11:49:55.198Z,60
2018-07-30T11:50:55.417Z,60
2018-07-30T11:51:54.875Z,60
2018-07-30T11:52:54.910Z,60
2018-07-30T11:53:55.264Z,60
2018-07-30T11:54:55.507Z,60
2018-07-30T11:55:55.330Z,55
2018-07-30T11:56:55.585Z,55
2018-07-30T11:57:55.091Z,55
2018-07-30T11:58:55.382Z,55
2018-07-30T11:59:55.420Z,55
2018-07-30T12:00:55.761Z,55
2018-07-30T12:01:56.270Z,55
2018-07-30T12:02:55.806Z,55
2018-07-30T12:03:55.560Z,55
2018-07-30T12:04:55.081Z,55
2018-07-30T12:05:55.893Z,60
2018-07-30T12:06:55.941Z,60
2018-07-30T12:07:55.705Z,65
2018-07-30T12:08:56.465Z,65
2018-07-30T12:09:56.034Z,70
2018-07-30T12:10:56.076Z,70
2018-07-30T12:11:56.104Z,70
2018-07-30T12:12:55.881Z,60
2018-07-30T12:13:55.953Z,60
2018-07-30T12:14:55.433Z,55
2018-07-30T12:15:55.734Z,55
2018-07-30T12:16:55.781Z,55
2018-07-30T12:17:56.337Z,55
2018-07-30T12:18:56.133Z,55
2018-07-30T12:19:55.610Z,60
2018-07-30T12:20:56.216Z,60
2018-07-30T12:21:56.865Z,60
2018-07-30T12:22:56.235Z,65
2018-07-30T12:23:56.614Z,65
2018-07-30T12:24:56.055Z,65
2018-07-30T12:25:56.357Z,60
2018-07-30T12:26:56.409Z,60
2018-07-30T12:27:56.688Z,60
2018-07-30T12:28:56.200Z,60
2018-07-30T12:29:56.043Z,60
2018-07-30T12:30:56.826Z,65
2018-07-30T12:31:56.572Z,70
2018-07-30T12:32:56.861Z,75
2018-07-30T12:33:56.693Z,75
2018-07-30T12:34:56.931Z,75
2018-07-30T12:35:56.709Z,70
2018-07-30T12:36:57.021Z,65
2018-07-30T12:37:56.791Z,60
2018-07-30T12:38:56.868Z,65
2018-07-30T12:39:56.354Z,65
2018-07-30T12:40:56.915Z,65
2018-07-30T12:41:56.831Z,60
2018-07-30T12:42:57.238Z,65
2018-07-30T12:43:57.285Z,65
2018-07-30T12:44:57.557Z,60
2018-07-30T12:45:57.339Z,60
2018-07-30T12:46:57.117Z,60
2018-07-30T12:47:57.408Z,60
2018-07-30T12:48:57.225Z,60
2018-07-30T12:49:57.275Z,60
2018-07-30T12:50:57.549Z,60
2018-07-30T12:51:57.565Z,60
2018-07-30T12:52:57.619Z,60
2018-07-30T12:53:57.399Z,60
2018-07-30T12:54:57.749Z,60
2018-07-30T12:55:57.185Z,60
2018-07-30T12:56:58.024Z,60
2018-07-30T12:57:57.787Z,60
2018-07-30T12:58:57.557Z,60
2018-07-30T12:59:57.333Z,60
2018-07-30T13:00:57.943Z,60
2018-07-30T13:01:57.667Z,55
2018-07-30T13:02:58.555Z,55
2018-07-30T13:03:57.491Z,55
2018-07-30T13:04:57.513Z,55
2018-07-30T13:05:58.079Z,55
2018-07-30T13:06:57.336Z,55
2018-07-30T13:07:57.627Z,55
2018-07-30T13:08:57.672Z,55
2018-07-30T13:09:57.975Z,60
2018-07-30T13:10:58.263Z,55
2018-07-30T13:11:58.203Z,55
2018-07-30T13:12:58.079Z,55
2018-07-30T13:13:58.388Z,55
2018-07-30T13:14:57.897Z,55
2018-07-30T13:15:57.721Z,60
2018-07-30T13:16:58.234Z,60
2018-07-30T13:17:58.591Z,30
2018-07-30T13:18:58.305Z,35
2018-07-30T13:19:58.610Z,55
2018-07-30T13:20:58.596Z,60
2018-07-30T13:21:58.183Z,60
2018-07-30T13:22:58.217Z,60
2018-07-30T13:23:58.494Z,60
2018-07-30T13:24:58.554Z,60
2018-07-30T13:25:58.826Z,60
2018-07-30T13:26:58.743Z,60
2018-07-30T13:27:58.648Z,60
2018-07-30T13:28:59.012Z,60
2018-07-30T13:29:58.720Z,60
2018-07-30T13:30:59.018Z,60
2018-07-30T13:31:58.549Z,60
2018-07-30T13:32:59.268Z,60
2018-07-30T13:33:58.872Z,60
2018-07-30T13:34:58.976Z,60
2018-07-30T13:35:58.951Z,45
2018-07-30T13:36:58.465Z,40
2018-07-30T13:37:59.282Z,35
2018-07-30T13:38:59.058Z,45
2018-07-30T13:39:59.120Z,50
2018-07-30T13:40:58.885Z,30
2018-07-30T13:41:59.446Z,50
2018-07-30T13:42:59.480Z,60
2018-07-30T13:43:59.255Z,65
2018-07-30T13:44:59.300Z,65
2018-07-30T13:45:59.333Z,65
2018-07-30T13:46:59.633Z,65
2018-07-30T13:47:59.410Z,65
2018-07-30T13:48:59.710Z,65
2018-07-30T13:49:59.486Z,70
2018-07-30T13:50:59.786Z,70
2018-07-30T13:51:59.858Z,70
2018-07-30T13:52:59.868Z,70
2018-07-30T13:53:59.899Z,70
2018-07-30T13:54:59.721Z,70
2018-07-30T13:55:59.719Z,75
2018-07-30T13:56:59.754Z,75
2018-07-30T13:57:59.799Z,75
2018-07-30T13:58:59.911Z,70
2018-07-30T14:00:00.589Z,70
2018-07-30T14:01:00.180Z,70
2018-07-30T14:01:59.968Z,65
2018-07-30T14:02:59.993Z,65
2018-07-30T14:03:59.768Z,65
2018-07-30T14:04:59.283Z,65
2018-07-30T14:06:00.100Z,65
2018-07-30T14:07:00.276Z,65
2018-07-30T14:07:59.919Z,65
2018-07-30T14:09:00.223Z,65
2018-07-30T14:10:00.512Z,65
2018-07-30T14:11:00.554Z,65
2018-07-30T14:12:00.080Z,65
2018-07-30T14:13:00.879Z,65
2018-07-30T14:14:00.148Z,65
2018-07-30T14:15:00.462Z,65
2018-07-30T14:16:00.233Z,65
2018-07-30T14:17:00.523Z,65
2018-07-30T14:18:00.838Z,65
2018-07-30T14:19:00.603Z,65
2018-07-30T14:20:00.645Z,65
2018-07-30T14:21:00.426Z,65
2018-07-30T14:22:00.469Z,65
2018-07-30T14:23:01.025Z,65
2018-07-30T14:24:01.069Z,65
2018-07-30T14:25:01.110Z,65
2018-07-30T14:26:01.174Z,65
2018-07-30T14:27:00.918Z,65
2018-07-30T14:28:00.756Z,65
2018-07-30T14:29:00.742Z,65
2018-07-30T14:30:01.043Z,70
2018-07-30T14:31:01.079Z,70
2018-07-30T14:32:01.378Z,70